Time;durP1;ratioP1;P1;durP2;ratioP2;P2;SDS_P1;SDS_P2;PMS_P1;PMS_P2;Temp;Humidity;BMP_temperature;BMP_pressure;BME280_temperature;BME280_humidity;BME280_pressure;Samples;Min_cycle;Max_cycle;Signal;HPM_P1;HPM_P2
2022/08/11 00:02:03;;;;;;;3.40;1.48;;;;;;;-145.69;69.22;71438.22;5094717;28;20201;-76
2022/08/11 00:04:36;;;;;;;4.90;2.00;;;;;;;-145.69;67.20;71414.34;5094132;28;20202;-77
2022/08/11 00:07:05;;;;;;;3.45;1.42;;;;;;;-145.69;67.42;71408.38;5094445;28;20198;-77
2022/08/11 00:09:36;;;;;;;8.45;2.00;;;;;;;-145.69;66.27;71398.41;5094780;28;20194;-76
2022/08/11 00:12:03;;;;;;;3.58;1.63;;;;;;;-145.69;65.56;71380.50;5094402;28;20211;-76
2022/08/11 00:14:32;;;;;;;3.38;2.00;;;;;;;-145.69;65.99;71386.47;5094299;28;20675;-77
2022/08/11 00:17:02;;;;;;;2.42;1.55;;;;;;;-145.69;66.05;71390.47;5094711;28;20201;-76
2022/08/11 00:19:32;;;;;;;5.85;1.75;;;;;;;-145.69;65.59;71374.53;5094382;28;20221;-76
2022/08/11 00:22:00;;;;;;;5.00;1.95;;;;;;;-145.69;67.16;71384.47;5093231;28;20317;-77
2022/08/11 00:24:33;;;;;;;5.75;1.83;;;;;;;-145.69;67.56;71396.44;5093682;28;20190;-76
2022/08/11 00:27:02;;;;;;;2.65;1.65;;;;;;;-145.69;66.26;71398.41;5094255;28;20942;-77
2022/08/11 00:29:29;;;;;;;5.35;2.17;;;;;;;-145.69;64.91;71330.75;5094337;28;20198;-77
2022/08/11 00:32:00;;;;;;;1.83;1.40;;;;;;;-145.69;64.99;71352.66;5094060;28;20205;-77
2022/08/11 00:34:30;;;;;;;5.25;1.83;;;;;;;-145.69;63.97;71344.69;5094280;28;20202;-76
2022/08/11 00:37:02;;;;;;;2.78;1.70;;;;;;;-145.69;64.53;71344.69;5094136;28;20239;-76
2022/08/11 00:39:33;;;;;;;4.35;1.83;;;;;;;-145.69;63.21;71334.75;5094667;28;20221;-76
2022/08/11 00:42:15;;;;;;;7.22;2.00;;;;;;;-145.69;65.14;71352.66;5092264;28;20204;-76
2022/08/11 00:45:02;;;;;;;5.05;1.55;;;;;;;-145.69;65.13;71340.72;5094132;28;20728;-77
2022/08/11 00:47:48;;;;;;;4.20;1.70;;;;;;;-145.69;64.24;71336.72;5093974;28;20267;-75
2022/08/11 00:50:24;;;;;;;3.15;1.65;;;;;;;-145.69;64.17;71346.69;5093775;28;20201;-75
2022/08/11 00:53:07;;;;;;;3.90;1.52;;;;;;;-145.69;65.10;71366.56;5093993;28;20197;-75
2022/08/11 00:56:11;;;;;;;2.05;1.52;;;;;;;-145.69;65.78;71374.53;5093878;28;20292;-77
2022/08/11 00:59:15;;;;;;;4.40;1.83;;;;;;;-145.69;65.88;71358.63;5063687;28;20280;-78
2022/08/11 01:01:56;;;;;;;4.15;2.00;;;;;;;-145.69;66.60;71370.56;5093572;28;20227;-75
2022/08/11 01:05:00;;;;;;;7.50;1.92;;;;;;;-145.69;67.12;71392.44;5093517;28;20230;-76
2022/08/11 01:08:08;;;;;;;3.08;1.60;;;;;;;-145.69;67.38;71386.47;5093504;28;20206;-76
2022/08/11 01:11:01;;;;;;;4.85;1.80;;;;;;;-145.69;67.00;71372.53;5092954;28;20561;-76
2022/08/11 01:13:52;;;;;;;3.00;1.90;;;;;;;-145.69;66.74;71386.47;5092536;28;20212;-77
2022/08/11 01:16:49;;;;;;;2.42;1.52;;;;;;;-145.69;66.83;71368.56;5093332;28;20231;-77
2022/08/11 01:19:58;;;;;;;4.25;2.00;;;;;;;-145.69;66.23;71350.66;5090156;28;20202;-76
2022/08/11 01:22:56;;;;;;;7.03;2.08;;;;;;;-145.69;65.50;71342.69;5092968;28;20229;-75
2022/08/11 01:25:58;;;;;;;2.58;1.83;;;;;;;-145.69;66.70;71354.63;5093636;28;20202;-77
2022/08/11 01:28:57;;;;;;;2.35;1.80;;;;;;;-145.69;66.41;71356.63;5092897;28;20228;-76
2022/08/11 01:31:46;;;;;;;5.65;2.40;;;;;;;-145.69;66.03;71354.63;5092743;28;20305;-77
2022/08/11 01:34:36;;;;;;;3.33;1.80;;;;;;;-145.69;67.38;71360.59;5092404;28;20209;-76
2022/08/11 01:37:27;;;;;;;8.05;1.80;;;;;;;-145.69;66.60;71364.59;5092900;28;20205;-76
2022/08/11 01:40:22;;;;;;;3.03;1.65;;;;;;;-145.69;66.28;71326.78;5092221;28;20186;-77
2022/08/11 01:46:08;;;;;;;3.27;2.00;;;;;;;-145.69;65.96;71326.78;5089617;28;20389;-77
2022/08/11 01:48:42;;;;;;;2.75;1.70;;;;;;;-145.69;66.30;71320.81;5092942;28;20202;-77
2022/08/11 01:51:17;;;;;;;6.50;1.98;;;;;;;-145.69;65.12;71326.78;5093093;28;20222;-77
2022/08/11 01:54:02;;;;;;;7.35;1.65;;;;;;;-145.69;65.28;71318.81;5093273;28;20205;-76
2022/08/11 01:56:49;;;;;;;4.97;1.92;;;;;;;-145.69;65.80;71306.88;5093009;28;20198;-76
2022/08/11 01:59:20;;;;;;;2.53;1.80;;;;;;;-145.69;65.61;71330.75;5092940;28;20194;-76
2022/08/11 02:02:05;;;;;;;3.05;1.77;;;;;;;-145.69;64.78;71310.84;5092738;28;20198;-76
2022/08/11 02:04:35;;;;;;;3.00;1.60;;;;;;;-145.69;65.80;71316.84;5090118;28;20236;-78
2022/08/11 02:07:13;;;;;;;3.58;2.10;;;;;;;-145.69;65.05;71310.84;5092923;28;20206;-77
2022/08/11 02:10:00;;;;;;;7.43;2.25;;;;;;;-145.69;65.86;71316.84;5096145;28;20197;-77
2022/08/11 02:12:43;;;;;;;3.65;2.00;;;;;;;-145.69;66.45;71352.66;5096743;28;20660;-77
2022/08/11 02:15:15;;;;;;;4.88;2.20;;;;;;;-145.69;68.31;71368.56;5096969;28;20202;-78
2022/08/11 02:17:53;;;;;;;2.83;2.17;;;;;;;-145.69;68.50;71378.50;5097063;28;20225;-77
2022/08/11 02:26:11;;;;;;;3.15;2.03;;;;;;;-145.69;70.43;71422.28;5096727;28;20205;-75
2022/08/11 02:28:51;;;;;;;2.92;1.92;;;;;;;-145.69;71.27;71434.22;5093750;28;20228;-78
2022/08/11 02:34:17;;;;;;;3.38;2.20;;;;;;;-145.69;71.79;71438.22;5095280;28;20201;-77
2022/08/11 02:36:54;;;;;;;6.03;2.15;;;;;;;-145.69;71.81;71434.22;5096630;28;20201;-77
2022/08/11 02:39:24;;;;;;;3.17;2.10;;;;;;;-145.69;72.21;71438.22;5096559;28;20202;-76
2022/08/11 02:44:52;;;;;;;6.93;2.40;;;;;;;-145.69;75.27;71485.97;5096160;28;20230;-77
2022/08/11 02:47:37;;;;;;;2.45;2.00;;;;;;;-145.69;76.75;71503.88;5095824;28;20537;-77
2022/08/11 02:50:10;;;;;;;3.67;1.98;;;;;;;-145.69;78.81;71541.69;5096248;28;20194;-75
2022/08/11 02:52:57;;;;;;;3.90;2.20;;;;;;;-145.69;78.16;71537.72;5095788;28;20204;-77
2022/08/11 02:55:32;;;;;;;3.67;2.17;;;;;;;-145.69;79.21;71547.66;5096197;28;20564;-78
2022/08/11 02:58:14;;;;;;;5.33;2.00;;;;;;;-145.69;77.73;71521.78;5095886;28;20216;-77
2022/08/11 03:00:50;;;;;;;7.07;2.15;;;;;;;-145.69;78.38;71515.81;5095950;28;20194;-77
2022/08/11 03:03:23;;;;;;;6.50;2.60;;;;;;;-145.69;80.03;71541.69;5095571;28;20625;-76
2022/08/11 03:06:02;;;;;;;5.73;2.57;;;;;;;-145.69;80.02;71559.59;5094700;28;20202;-75
2022/08/11 03:08:50;;;;;;;7.33;2.50;;;;;;;-145.69;80.25;71549.66;5095399;28;20205;-75
2022/08/11 03:17:10;;;;;;;8.90;3.17;;;;;;;-145.69;81.48;71555.63;5093620;28;20205;-75
2022/08/11 03:19:46;;;;;;;5.03;2.60;;;;;;;-145.69;80.07;71545.66;5094377;28;20283;-77
2022/08/11 03:22:22;;;;;;;5.07;2.10;;;;;;;-145.69;80.24;71549.66;5095545;28;20233;-78
2022/08/11 03:25:00;;;;;;;5.43;2.37;;;;;;;-145.69;81.07;71573.53;5094659;28;20225;-76
2022/08/11 03:27:45;;;;;;;5.80;2.80;;;;;;;-145.69;81.69;71563.56;5094380;28;20583;-77
2022/08/11 03:30:17;;;;;;;3.23;2.33;;;;;;;-145.69;81.50;71561.59;5095447;28;20209;-76
2022/08/11 03:35:47;;;;;;;3.97;2.60;;;;;;;-145.69;78.35;71521.78;5095476;28;20197;-75
2022/08/11 03:38:17;;;;;;;6.93;2.43;;;;;;;-145.69;78.82;71505.88;5095611;28;20209;-77
2022/08/11 03:44:07;;;;;;;4.17;2.33;;;;;;;-145.69;75.47;71466.06;5094885;28;20697;-76
2022/08/11 03:46:59;;;;;;;6.90;3.43;;;;;;;-145.69;76.91;71476.03;5093986;28;20209;-77
2022/08/11 03:49:38;;;;;;;6.05;2.30;;;;;;;-145.69;76.90;71493.94;5095132;28;20209;-76
2022/08/11 03:52:13;;;;;;;3.55;2.10;;;;;;;-145.69;76.61;71487.97;5095086;28;20198;-75
2022/08/11 03:54:51;;;;;;;3.83;2.40;;;;;;;-145.69;76.80;71491.94;5095172;28;20682;-76
2022/08/11 03:57:48;;;;;;;2.72;2.40;;;;;;;-145.69;77.45;71493.94;5095065;28;20255;-76
2022/08/11 04:00:34;;;;;;;3.50;2.15;;;;;;;-145.69;77.65;71533.72;5068291;28;20934;-76
2022/08/11 04:06:21;;;;;;;3.80;2.43;;;;;;;-145.69;81.33;71585.47;5110997;27;20542;-77
2022/08/11 04:09:23;;;;;;;3.23;2.20;;;;;;;-145.69;81.27;71577.50;5091796;28;20280;-76
2022/08/11 04:12:46;;;;;;;5.37;2.40;;;;;;;-145.69;82.51;71607.34;5115401;28;20196;-76
2022/08/11 04:15:59;;;;;;;3.57;2.37;;;;;;;-145.69;82.35;71613.31;5067995;28;20210;-75
2022/08/11 04:18:54;;;;;;;6.73;2.27;;;;;;;-145.69;83.21;71603.38;5067888;28;20219;-77
2022/08/11 04:21:46;;;;;;;3.43;2.10;;;;;;;-145.69;82.94;71605.38;5116534;27;20209;-76
2022/08/11 04:24:38;;;;;;;4.93;2.50;;;;;;;-145.69;83.65;71617.31;5105282;27;20717;-75
2022/08/11 04:27:35;;;;;;;4.43;2.30;;;;;;;-145.69;82.67;71613.31;5131314;27;20205;-78
2022/08/11 04:30:07;;;;;;;4.53;2.30;;;;;;;-145.69;84.02;71629.25;5130950;27;20219;-76
2022/08/11 04:33:07;;;;;;;6.37;2.47;;;;;;;-145.69;84.84;71629.25;5130864;27;20203;-75
2022/08/11 04:35:42;;;;;;;5.23;2.27;;;;;;;-145.69;84.58;71633.22;5113903;28;20284;-76
2022/08/11 04:38:48;;;;;;;6.90;2.83;;;;;;;-145.69;85.24;71633.22;5130961;27;20224;-75
2022/08/11 04:45:09;;;;;;;3.77;2.30;;;;;;;-145.69;82.65;71593.44;5130481;28;20298;-76
2022/08/11 05:03:40;;;;;;;4.93;2.60;;;;;;;-145.69;78.74;71509.84;5130260;27;20200;-76
2022/08/11 05:06:35;;;;;;;5.00;2.60;;;;;;;-145.69;78.67;71505.88;5064586;28;20210;-75
2022/08/11 05:09:27;;;;;;;5.67;2.50;;;;;;;-145.69;78.24;71489.94;5066924;28;20558;-77
2022/08/11 05:12:09;;;;;;;4.23;2.50;;;;;;;-145.69;77.17;71474.03;5123610;27;20659;-76
2022/08/11 05:37:13;;;;;;;4.90;2.33;;;;;;;-145.69;73.40;71362.59;5101863;28;20286;-75
2022/08/11 05:56:32;;;;;;;7.45;2.10;;;;;;;-145.69;69.35;71259.13;5115626;28;20197;-76
2022/08/11 05:59:00;;;;;;;6.00;2.20;;;;;;;-145.69;69.14;71245.19;5115550;28;20202;-76
2022/08/11 06:01:30;;;;;;;7.25;2.13;;;;;;;-145.69;67.88;71215.34;5100006;28;20190;-76
2022/08/11 06:04:14;;;;;;;10.45;2.28;;;;;;;-145.69;66.97;71211.38;5094925;28;20330;-76
2022/08/11 06:06:49;;;;;;;4.40;1.95;;;;;;;-145.69;67.56;71187.50;5095287;28;20292;-77
2022/08/11 06:09:22;;;;;;;7.88;2.60;;;;;;;-145.69;65.81;71195.47;5094761;28;20327;-76
2022/08/11 06:11:48;;;;;;;6.00;2.08;;;;;;;-145.69;65.93;71177.53;5094604;28;20667;-77
2022/08/11 06:14:19;;;;;;;4.75;2.00;;;;;;;-145.69;65.06;71163.63;5114742;28;20205;-76
2022/08/11 06:16:48;;;;;;;3.35;2.20;;;;;;;-145.69;64.56;71133.78;5115148;28;20231;-75
2022/08/11 06:19:15;;;;;;;2.75;2.15;;;;;;;-145.69;62.47;71115.88;5115196;28;20205;-76
2022/08/11 06:21:46;;;;;;;6.22;2.58;;;;;;;-145.69;62.47;71099.94;5115145;28;20266;-76
2022/08/11 06:24:15;;;;;;;3.35;2.00;;;;;;;-145.69;61.02;71088.00;5110471;28;20702;-77
2022/08/11 06:26:47;;;;;;;4.05;2.00;;;;;;;-145.69;59.33;71060.16;5094591;28;20198;-77
2022/08/11 06:29:17;;;;;;;3.42;2.00;;;;;;;-145.69;58.96;71036.28;5089658;28;20603;-77
2022/08/11 06:31:51;;;;;;;3.78;2.05;;;;;;;-145.69;58.97;71010.41;5074559;28;20234;-77
2022/08/11 06:34:31;;;;;;;5.28;2.13;;;;;;;-145.69;58.71;70998.47;5073838;28;20480;-76
2022/08/11 06:37:08;;;;;;;4.30;2.08;;;;;;;-145.69;57.66;70984.53;5094564;28;20548;-76
2022/08/11 06:39:51;;;;;;;3.88;2.30;;;;;;;-145.69;56.52;70968.63;5114809;28;20201;-77
2022/08/11 06:42:35;;;;;;;2.25;1.90;;;;;;;-145.69;56.12;70946.75;5114962;28;20225;-75
2022/08/11 06:45:07;;;;;;;3.90;2.35;;;;;;;-145.69;56.29;70934.81;5114744;28;20286;-77
2022/08/11 06:47:35;;;;;;;4.22;1.95;;;;;;;-145.69;55.16;70920.88;5114255;28;20204;-77
2022/08/11 06:52:47;;;;;;;4.25;2.40;;;;;;;-145.69;54.18;70893.03;5094149;28;20233;-76
2022/08/11 07:00:26;;;;;;;5.75;2.15;;;;;;;-145.69;53.26;70869.16;5092706;28;20198;-77
2022/08/11 07:01:01;;;;;;;4.05;2.30;;;;;;;-145.69;52.42;70863.19;5099751;28;20207;-76
2022/08/11 07:03:35;;;;;;;4.65;2.00;;;;;;;-145.69;52.10;70861.19;5111741;28;20400;-79
2022/08/11 07:06:15;;;;;;;2.97;2.08;;;;;;;-145.69;52.62;70849.25;5114014;27;20225;-75
2022/08/11 07:17:48;;;;;;;3.72;1.80;;;;;;;-145.69;50.59;70815.44;5092771;28;20296;-76
2022/08/11 07:28:58;;;;;;;3.92;1.98;;;;;;;-145.69;47.43;70771.66;5113938;28;20204;-79
2022/08/11 07:31:31;;;;;;;3.40;1.83;;;;;;;-145.69;48.49;70765.69;5113880;28;20201;-78
2022/08/11 07:34:10;;;;;;;3.38;1.92;;;;;;;-145.69;46.78;70773.66;5113686;28;20197;-77
2022/08/11 07:36:40;;;;;;;5.05;1.70;;;;;;;-145.69;47.77;70753.75;5094264;28;20247;-77
2022/08/11 07:39:10;;;;;;;5.60;1.52;;;;;;;-145.69;46.54;70743.81;5093142;28;20198;-77
2022/08/11 07:41:37;;;;;;;5.15;2.10;;;;;;;-145.69;46.04;70708.00;5093342;28;20216;-77
2022/08/11 07:44:08;;;;;;;4.43;1.80;;;;;;;-145.69;45.14;70711.97;5093221;28;20198;-76
2022/08/11 07:54:52;;;;;;;3.50;1.85;;;;;;;-145.69;43.00;70678.16;5113621;28;20250;-77
2022/08/11 08:19:20;;;;;;;1.98;1.38;;;;;;;-145.69;40.42;70594.59;5088692;28;20201;-76
2022/08/11 08:21:48;;;;;;;3.53;1.42;;;;;;;-145.69;40.57;70574.69;5090790;28;20205;-76
2022/08/11 08:24:18;;;;;;;4.05;1.40;;;;;;;-145.69;38.74;70590.63;5092546;28;20212;-78
2022/08/11 08:32:21;;;;;;;7.28;1.50;;;;;;;-145.69;38.86;70578.69;5072534;28;20206;-77
2022/08/11 08:34:50;;;;;;;4.88;2.00;;;;;;;-145.69;39.85;70558.78;5072551;28;20199;-76
2022/08/11 08:37:18;;;;;;;2.22;1.20;;;;;;;-145.69;38.63;70554.81;5072755;28;20249;-76
2022/08/11 08:39:47;;;;;;;5.75;1.23;;;;;;;-145.69;39.30;70558.78;5090701;28;20210;-76
2022/08/11 08:42:24;;;;;;;2.70;1.38;;;;;;;-145.69;39.18;70546.84;5113198;28;20197;-76
2022/08/11 08:44:56;;;;;;;3.08;1.50;;;;;;;-145.69;38.05;70538.88;5112869;28;20228;-77
2022/08/11 08:47:24;;;;;;;6.00;1.52;;;;;;;-145.69;37.11;70552.81;5113202;28;20736;-77
2022/08/11 08:49:58;;;;;;;9.38;1.88;;;;;;;-145.69;37.55;70556.78;5113150;28;20204;-77
2022/08/11 08:52:29;;;;;;;2.83;1.40;;;;;;;-145.69;37.24;70560.78;5102729;28;20202;-78
2022/08/11 08:55:02;;;;;;;2.45;1.55;;;;;;;-145.69;37.63;70546.84;5096887;28;20652;-80
2022/08/11 08:57:34;;;;;;;2.22;1.45;;;;;;;-145.69;37.29;70552.81;5096624;28;20193;-78
2022/08/11 09:00:02;;;;;;;1.88;1.30;;;;;;;-145.69;37.31;70544.84;5097585;28;20244;-77
2022/08/11 09:02:29;;;;;;;3.28;1.35;;;;;;;-145.69;38.11;70546.84;5096395;28;20582;-77
2022/08/11 09:04:57;;;;;;;3.28;1.23;;;;;;;-145.69;37.56;70540.88;5096025;28;20234;-82
2022/08/11 09:07:25;;;;;;;5.55;1.52;;;;;;;-145.69;37.73;70534.91;5096138;28;20705;-77
2022/08/11 09:09:56;;;;;;;1.75;1.38;;;;;;;-145.69;36.96;70530.94;5096012;28;20240;-76
2022/08/11 09:12:28;;;;;;;3.50;1.70;;;;;;;-145.69;36.75;70511.03;5116709;28;20193;-77
2022/08/11 09:15:02;;;;;;;5.65;1.65;;;;;;;-145.69;37.64;70481.19;5116635;28;20205;-75
2022/08/11 09:17:31;;;;;;;4.70;1.40;;;;;;;-145.69;36.65;70471.25;5116541;28;20227;-76
2022/08/11 09:20:02;;;;;;;4.57;1.73;;;;;;;-145.69;37.93;70461.31;5116360;28;20213;-76
2022/08/11 09:28:03;;;;;;;6.07;1.45;;;;;;;-145.69;37.38;70467.28;5095818;28;20237;-77
2022/08/11 09:30:30;;;;;;;11.25;1.60;;;;;;;-145.69;36.98;70465.28;5095659;28;20247;-76
2022/08/11 09:33:00;;;;;;;5.95;1.40;;;;;;;-145.69;36.38;70467.28;5095938;28;20560;-76
2022/08/11 09:35:28;;;;;;;5.05;1.40;;;;;;;-145.69;35.82;70437.44;5111223;28;20435;-77
2022/08/11 09:40:43;;;;;;;3.40;1.50;;;;;;;-145.69;36.74;70439.41;5116065;28;20204;-80
2022/08/11 09:45:58;;;;;;;2.58;1.50;;;;;;;-145.69;37.35;70451.34;5111791;28;20356;-78
2022/08/11 09:48:27;;;;;;;7.35;1.50;;;;;;;-145.69;36.08;70437.44;5095537;28;20198;-78
2022/08/11 09:50:55;;;;;;;4.47;1.20;;;;;;;-145.69;35.47;70453.34;5095385;28;20201;-76
2022/08/11 09:53:25;;;;;;;6.15;1.40;;;;;;;-145.69;34.20;70439.41;5095252;28;20209;-80
2022/08/11 09:55:52;;;;;;;3.70;1.20;;;;;;;-145.69;34.44;70447.38;5095249;28;20202;-76
2022/08/11 09:58:22;;;;;;;1.55;1.05;;;;;;;-145.69;35.31;70413.56;5103346;28;20666;-75
2022/08/11 10:00:51;;;;;;;2.15;1.15;;;;;;;-145.69;35.46;70403.59;5115438;28;20247;-76
2022/08/11 10:03:20;;;;;;;2.20;1.30;;;;;;;-145.69;35.19;70433.44;5115412;28;20209;-75
2022/08/11 10:08:37;;;;;;;4.10;1.20;;;;;;;-145.69;36.35;70383.72;5115443;28;20215;-78
2022/08/11 10:11:06;;;;;;;5.25;1.30;;;;;;;-145.69;35.19;70379.72;5102834;28;20194;-77
2022/08/11 10:15:32;;;;;;;2.58;1.20;;;;;;;-145.69;35.88;70387.69;5094925;28;20198;-75
2022/08/11 10:16:25;;;;;;;2.88;1.38;;;;;;;-145.69;34.60;70393.66;5094728;27;20202;-76
2022/08/11 10:18:52;;;;;;;6.65;1.73;;;;;;;-145.69;35.42;70391.66;5094944;28;20202;-75
2022/08/11 10:21:27;;;;;;;3.97;1.50;;;;;;;-145.69;34.62;70361.84;5094925;28;20573;-78
2022/08/11 10:26:53;;;;;;;3.67;1.15;;;;;;;-145.69;35.57;70363.81;5113023;28;20274;-76
2022/08/11 10:34:53;;;;;;;5.03;1.52;;;;;;;-145.69;35.32;70320.06;5113982;28;20666;-79
2022/08/11 10:37:22;;;;;;;5.45;1.50;;;;;;;-145.69;34.40;70335.97;5087726;28;20199;-76
2022/08/11 10:39:49;;;;;;;2.70;1.48;;;;;;;-145.69;35.64;70308.13;5073982;28;20206;-76
2022/08/11 10:47:33;;;;;;;1.70;1.10;;;;;;;-145.69;34.86;70294.19;5073711;28;20325;-79
2022/08/11 10:47:52;;;;;;;3.38;1.42;;;;;;;-145.69;35.41;70288.22;5111475;28;20355;-75
2022/08/11 10:58:45;;;;;;;2.90;1.23;;;;;;;-145.69;35.50;70248.44;5104909;28;20609;-73
2022/08/11 11:01:14;;;;;;;1.95;1.30;;;;;;;-145.69;36.19;70240.47;5094168;28;20229;-76
2022/08/11 11:03:42;;;;;;;3.38;1.38;;;;;;;-145.69;36.53;70236.50;5093626;28;20206;-76
2022/08/11 11:06:18;;;;;;;3.65;1.52;;;;;;;-145.69;36.06;70236.50;5093894;28;20234;-76
2022/08/11 11:08:53;;;;;;;4.45;1.65;;;;;;;-145.69;37.19;70208.66;5093809;28;20289;-76
2022/08/11 11:11:21;;;;;;;4.78;1.30;;;;;;;-145.69;35.10;70216.63;5109726;28;20722;-76
2022/08/11 11:19:25;;;;;;;4.75;1.42;;;;;;;-145.69;36.98;70258.38;5114070;28;20197;-76
2022/08/11 11:22:36;;;;;;;2.85;1.50;;;;;;;-145.69;36.55;70252.41;5112645;28;20201;-76
2022/08/11 11:24:57;;;;;;;6.00;1.67;;;;;;;-145.69;37.94;70234.50;5093499;28;20198;-76
2022/08/11 11:27:32;;;;;;;2.83;1.30;;;;;;;-145.69;38.19;70192.75;5093583;28;20230;-75
2022/08/11 11:30:04;;;;;;;2.53;1.60;;;;;;;-145.69;37.40;70180.81;5093931;28;20232;-75
2022/08/11 11:33:08;;;;;;;2.97;1.83;;;;;;;-145.69;36.56;70162.91;5093637;28;20197;-75
2022/08/11 11:35:49;;;;;;;3.55;2.10;;;;;;;-145.69;37.62;70148.97;5104864;28;20200;-76
2022/08/11 11:38:17;;;;;;;4.63;2.03;;;;;;;-145.69;35.21;70125.09;5113960;28;20197;-76
2022/08/11 11:41:23;;;;;;;2.65;1.63;;;;;;;-145.69;36.60;70147.00;5113950;28;20262;-77
2022/08/11 11:43:35;;;;;;;8.10;1.70;;;;;;;-145.69;35.27;70170.84;5113490;28;20201;-76
2022/08/11 11:46:03;;;;;;;5.30;1.52;;;;;;;-145.69;34.94;70170.84;5112195;28;20317;-77
2022/08/11 11:48:32;;;;;;;2.80;1.40;;;;;;;-145.69;34.29;70147.00;5096049;28;20205;-76
2022/08/11 11:51:00;;;;;;;3.05;1.60;;;;;;;-145.69;34.63;70117.16;5093273;28;20201;-75
2022/08/11 11:53:26;;;;;;;2.20;1.48;;;;;;;-145.69;34.77;70089.31;5093019;28;20202;-76
2022/08/11 11:55:53;;;;;;;6.70;1.60;;;;;;;-145.69;35.42;70117.16;5092482;28;20206;-76
2022/08/11 12:01:18;;;;;;;5.10;1.90;;;;;;;-145.69;35.53;70069.41;5072408;28;20676;-76
2022/08/11 12:03:50;;;;;;;3.53;1.60;;;;;;;-145.69;34.94;70063.44;5072522;28;20343;-76
2022/08/11 12:06:18;;;;;;;3.80;1.48;;;;;;;-145.69;35.44;70041.56;5107643;28;20227;-76
2022/08/11 12:08:48;;;;;;;2.08;1.50;;;;;;;-145.69;34.77;70019.69;5107791;28;20201;-76
2022/08/11 12:14:04;;;;;;;5.18;1.55;;;;;;;-145.69;34.23;70045.53;5093050;28;20730;-77
2022/08/11 12:16:33;;;;;;;3.97;1.58;;;;;;;-145.69;33.63;70037.59;5093112;28;20198;-77
2022/08/11 12:19:02;;;;;;;4.10;1.33;;;;;;;-145.69;34.61;70071.41;5092845;28;20680;-76
2022/08/11 12:21:30;;;;;;;4.85;1.67;;;;;;;-145.69;34.34;70089.31;5092466;28;20206;-78
2022/08/11 12:29:30;;;;;;;5.47;1.63;;;;;;;-145.69;35.02;70057.47;5104400;28;20270;-75
2022/08/11 12:31:59;;;;;;;2.63;1.55;;;;;;;-145.69;35.05;70001.78;5096856;28;20205;-75
2022/08/11 12:34:28;;;;;;;3.22;1.70;;;;;;;-145.69;34.47;69997.78;5092088;28;20682;-75
2022/08/11 12:36:57;;;;;;;2.05;1.60;;;;;;;-145.69;33.83;70009.72;5076670;28;20205;-76
2022/08/11 12:53:10;;;;;;;4.60;1.70;;;;;;;-145.69;35.55;69886.41;5096520;28;20212;-75
2022/08/11 12:58:27;;;;;;;4.10;1.50;;;;;;;-145.69;32.97;69818.78;5076034;28;20205;-78
2022/08/11 13:06:25;;;;;;;4.75;1.65;;;;;;;-145.69;31.56;69794.91;5116597;28;20252;-75
2022/08/11 13:08:52;;;;;;;6.90;1.60;;;;;;;-145.69;31.71;69788.94;5116459;28;20231;-79
2022/08/11 13:14:08;;;;;;;4.15;1.63;;;;;;;-145.69;31.51;69840.66;5113724;28;20196;-75
2022/08/11 13:19:18;;;;;;;4.00;1.40;;;;;;;-145.69;31.59;69739.22;5095692;28;20193;-74
2022/08/11 13:21:46;;;;;;;7.78;1.80;;;;;;;-145.69;32.34;69723.31;5095774;28;20205;-75
2022/08/11 13:24:13;;;;;;;2.92;1.45;;;;;;;-145.69;29.56;69653.69;5096057;28;20256;-76
2022/08/11 13:26:39;;;;;;;2.33;1.10;;;;;;;-145.69;30.77;69536.34;5104921;28;20752;-76
2022/08/11 13:29:06;;;;;;;4.95;1.35;;;;;;;-145.69;27.98;69267.84;5116287;28;20201;-75
2022/08/11 13:31:33;;;;;;;4.40;1.40;;;;;;;-145.69;26.74;69082.88;5116167;28;20221;-76
2022/08/11 13:34:02;;;;;;;7.25;1.50;;;;;;;-145.69;25.57;68995.38;5116061;28;20201;-77
2022/08/11 13:36:31;;;;;;;3.58;1.00;;;;;;;-145.69;25.69;69035.16;5115334;28;20201;-80
2022/08/11 13:38:59;;;;;;;2.28;1.40;;;;;;;-145.69;26.84;69182.31;5104191;28;20653;-76
2022/08/11 13:41:40;;;;;;;3.35;1.40;;;;;;;-145.69;25.63;69182.31;5095506;28;20656;-79
2022/08/11 13:44:09;;;;;;;1.98;1.33;;;;;;;-145.69;25.78;69110.72;5095579;28;20285;-80
2022/08/11 13:46:36;;;;;;;2.92;1.30;;;;;;;-145.69;26.42;69134.59;5095323;28;20687;-80
2022/08/11 13:49:04;;;;;;;2.58;1.75;;;;;;;-145.69;25.90;69049.06;5094768;28;20194;-80
2022/08/11 13:51:33;;;;;;;1.63;1.40;;;;;;;-145.69;25.63;69222.09;5110117;28;20253;-81
2022/08/11 13:54:03;;;;;;;1.98;1.10;;;;;;;-145.69;26.06;69150.50;5096292;28;20664;-80
2022/08/11 13:56:30;;;;;;;6.10;1.35;;;;;;;-145.69;26.06;69146.53;5094616;28;20202;-76
2022/08/11 13:58:57;;;;;;;3.72;1.25;;;;;;;-145.69;25.88;69039.13;5087190;28;20194;-78
2022/08/11 14:01:28;;;;;;;2.75;1.17;;;;;;;-145.69;25.54;69076.91;5095178;28;20194;-75
2022/08/11 14:03:55;;;;;;;17.70;1.90;;;;;;;-145.69;25.21;68937.72;5095074;28;20283;-79
2022/08/11 14:06:22;;;;;;;2.78;1.40;;;;;;;-145.69;24.35;68852.19;5095223;28;20226;-80
2022/08/11 14:08:52;;;;;;;2.83;1.50;;;;;;;-145.69;24.01;68899.94;5095175;28;20194;-81
2022/08/11 14:14:09;;;;;;;2.58;1.30;;;;;;;-145.69;24.55;68895.94;5109588;28;20340;-78
2022/08/11 14:16:42;;;;;;;4.45;1.40;;;;;;;-145.69;24.61;68738.84;5094621;28;20274;-78
2022/08/11 14:19:13;;;;;;;2.72;1.40;;;;;;;-145.69;24.77;68726.94;5095094;28;20219;-77
2022/08/11 14:24:28;;;;;;;6.32;1.40;;;;;;;-145.69;24.97;68888.00;5074435;28;20252;-78
2022/08/11 14:26:56;;;;;;;6.78;1.67;;;;;;;-145.69;24.00;68913.84;5076982;28;20195;-78
2022/08/11 14:29:26;;;;;;;5.00;1.30;;;;;;;-145.69;24.01;68800.50;5074493;28;20210;-78
2022/08/11 14:31:55;;;;;;;4.35;1.60;;;;;;;-145.69;23.54;68728.91;5074463;28;20229;-79
2022/08/11 14:34:23;;;;;;;3.30;1.45;;;;;;;-145.69;24.56;68722.94;5100271;28;20289;-77
2022/08/11 14:36:58;;;;;;;3.22;1.30;;;;;;;-145.69;24.22;68669.25;5097128;28;20224;-79
2022/08/11 14:39:27;;;;;;;3.67;1.10;;;;;;;-145.69;24.16;68711.00;5094239;28;20647;-79
2022/08/11 14:47:48;;;;;;;1.48;1.27;;;;;;;-145.69;22.91;68577.78;5031583;28;20201;-78
2022/08/11 14:50:21;;;;;;;2.00;1.50;;;;;;;-145.69;23.97;68655.34;5031267;28;20203;-78
2022/08/11 14:52:50;;;;;;;3.75;1.50;;;;;;;-145.69;23.58;68585.75;5068654;28;20193;-79
2022/08/11 14:58:05;;;;;;;2.25;1.40;;;;;;;-145.69;23.23;68655.34;5093954;28;20314;-79
2022/08/11 15:00:33;;;;;;;2.92;1.40;;;;;;;-145.69;23.51;68782.59;5093902;28;20208;-80
2022/08/11 15:03:08;;;;;;;4.70;1.45;;;;;;;-145.69;24.22;68800.50;5110599;28;20229;-80
2022/08/11 15:05:36;;;;;;;3.60;1.40;;;;;;;-145.69;23.39;68713.00;5114503;28;20265;-79
2022/08/11 15:08:05;;;;;;;1.55;1.30;;;;;;;-145.69;24.71;68880.03;5114328;28;20201;-77
2022/08/11 15:10:32;;;;;;;4.38;1.67;;;;;;;-145.69;24.24;68901.91;5114270;28;20575;-80
2022/08/11 15:13:00;;;;;;;3.55;1.38;;;;;;;-145.69;25.39;68943.69;5113716;28;20433;-77
2022/08/11 15:18:18;;;;;;;3.17;1.40;;;;;;;-145.69;24.85;68828.34;5113950;28;20366;-75
2022/08/11 15:26:18;;;;;;;2.67;1.38;;;;;;;-145.69;24.40;68905.91;5102587;28;20247;-78
2022/08/11 15:37:30;;;;;;;4.50;1.80;;;;;;;-145.69;23.69;68748.81;5053896;28;20251;-77
2022/08/11 15:45:49;;;;;;;3.88;1.60;;;;;;;-145.69;23.23;68597.66;5088779;28;20326;-75
2022/08/11 15:48:22;;;;;;;3.42;1.60;;;;;;;-145.69;23.39;68581.75;5075757;28;20648;-76
2022/08/11 15:50:53;;;;;;;3.83;1.38;;;;;;;-145.69;24.04;68681.19;5101963;28;20196;-75
2022/08/11 15:53:27;;;;;;;4.80;1.80;;;;;;;-145.69;24.18;68792.53;5103312;28;20213;-77
2022/08/11 15:55:55;;;;;;;3.72;1.60;;;;;;;-145.69;23.78;68707.03;5093019;28;20201;-77
2022/08/11 16:04:14;;;;;;;2.65;1.50;;;;;;;-145.69;23.96;68768.69;5112672;28;20820;-76
2022/08/11 16:07:00;;;;;;;2.65;1.15;;;;;;;-145.69;22.87;68452.53;5113192;28;20656;-76
2022/08/11 16:09:32;;;;;;;9.38;1.75;;;;;;;-145.69;23.54;68697.09;5113486;28;20203;-78
2022/08/11 16:12:03;;;;;;;5.13;1.30;;;;;;;-145.69;24.39;68820.38;5113415;28;20205;-76
2022/08/11 16:17:21;;;;;;;2.13;1.15;;;;;;;-145.69;24.05;68800.50;5092924;28;20228;-78
2022/08/11 16:19:53;;;;;;;4.03;1.42;;;;;;;-145.69;23.66;68661.31;5074329;28;20258;-76
2022/08/11 16:22:33;;;;;;;2.65;1.30;;;;;;;-145.69;22.35;68454.50;5072581;28;20198;-78
2022/08/11 16:25:01;;;;;;;3.03;1.60;;;;;;;-145.69;23.86;68593.69;5072602;28;20733;-78